CPX286 Details

Departure: Fort Worth Alliance Airport (KAFW)
Arrival: Seattle-Tacoma International Airport (KSEA) at N/A
Route: SWABR5 HUDAD PNH ALS JNC TCH TWF BKE PDT CHINS3
Notes:


Current Weather Information
KAFW 230753Z 17006KT 10SM CLR 13/03 A3007 RMK AO2 SLP178 T01280033
KSEA 230753Z 04006KT 10SM FEW027 10/07 A3045 RMK AO2 SLP319 T01000067 401500094 $